Time;durP1;ratioP1;P1;durP2;ratioP2;P2;SDS_P1;SDS_P2;PMS_P1;PMS_P2;Temp;Humidity;BMP_temperature;BMP_pressure;BME280_temperature;BME280_humidity;BME280_pressure;Samples;Min_cycle;Max_cycle;Signal;HPM_P1;HPM_P2
2023/12/23 00:02:23;;;;;;;10.40;1.90;;;;;;;11.97;100.00;101193.06;5205554;28;20054;-75
2023/12/23 00:04:54;;;;;;;12.80;1.90;;;;;;;11.90;100.00;101190.22;5206004;28;20014;-75
2023/12/23 00:07:24;;;;;;;12.63;1.58;;;;;;;11.92;100.00;101193.56;5205332;28;20684;-75
2023/12/23 00:09:54;;;;;;;9.80;1.80;;;;;;;11.97;100.00;101182.31;5209742;28;20030;-75
2023/12/23 00:12:25;;;;;;;6.03;1.30;;;;;;;11.85;100.00;101189.03;5207261;28;20388;-75
2023/12/23 00:14:56;;;;;;;15.25;1.95;;;;;;;11.87;100.00;101187.00;5203881;28;20037;-75
2023/12/23 00:17:26;;;;;;;10.60;1.60;;;;;;;11.81;100.00;101175.06;5205369;28;20063;-75
2023/12/23 00:19:57;;;;;;;6.22;1.20;;;;;;;11.91;100.00;101191.06;5206338;28;20446;-74
2023/12/23 00:22:27;;;;;;;11.88;1.70;;;;;;;11.80;100.00;101191.34;5206059;28;20025;-75
2023/12/23 00:24:58;;;;;;;8.13;1.35;;;;;;;11.79;100.00;101195.88;5206471;28;20055;-75
2023/12/23 00:27:28;;;;;;;9.73;1.40;;;;;;;11.84;100.00;101200.78;5206170;28;20052;-75
2023/12/23 00:29:59;;;;;;;12.57;1.50;;;;;;;11.82;100.00;101192.88;5206291;28;20041;-75
2023/12/23 00:32:29;;;;;;;12.13;1.90;;;;;;;11.85;100.00;101197.09;5206143;28;20028;-75
2023/12/23 00:35:00;;;;;;;12.05;1.85;;;;;;;11.88;100.00;101191.38;5209425;28;20472;-75
2023/12/23 00:37:30;;;;;;;12.88;1.60;;;;;;;11.84;100.00;101190.03;5206375;28;20025;-75
2023/12/23 00:40:01;;;;;;;10.65;1.73;;;;;;;11.88;100.00;101183.31;5208637;28;20025;-75
2023/12/23 00:42:31;;;;;;;12.23;3.47;;;;;;;11.73;100.00;101177.72;5207441;28;20047;-75
2023/12/23 00:45:02;;;;;;;8.43;1.80;;;;;;;11.75;100.00;101177.56;5206729;28;20020;-75
2023/12/23 00:47:33;;;;;;;9.30;1.90;;;;;;;11.75;100.00;101178.41;5205446;28;20159;-75
2023/12/23 00:50:04;;;;;;;12.45;1.77;;;;;;;11.71;100.00;101169.00;5209572;28;20028;-75
2023/12/23 00:52:35;;;;;;;15.18;3.00;;;;;;;11.66;100.00;101174.84;5205345;28;20403;-75
2023/12/23 00:55:05;;;;;;;15.63;2.50;;;;;;;11.59;100.00;101167.59;5209977;28;20029;-75
2023/12/23 00:57:36;;;;;;;16.95;2.20;;;;;;;11.52;100.00;101161.22;5205248;28;20497;-75
2023/12/23 01:00:07;;;;;;;9.65;2.47;;;;;;;11.55;100.00;101166.28;5210699;28;20029;-75
2023/12/23 01:02:37;;;;;;;15.35;2.85;;;;;;;11.53;100.00;101160.22;5207514;28;20029;-75
2023/12/23 01:05:09;;;;;;;15.20;2.28;;;;;;;11.53;100.00;101157.53;5206139;28;20040;-74
2023/12/23 01:07:41;;;;;;;19.90;4.07;;;;;;;11.54;100.00;101154.66;5206812;28;20071;-75
2023/12/23 01:10:12;;;;;;;13.98;2.30;;;;;;;11.59;100.00;101160.38;5208351;28;20030;-74
2023/12/23 01:12:43;;;;;;;13.07;2.70;;;;;;;11.60;100.00;101154.03;5207588;28;20037;-75
2023/12/23 01:15:13;;;;;;;12.52;2.20;;;;;;;11.60;100.00;101155.88;5209356;28;20056;-76
2023/12/23 01:17:44;;;;;;;10.07;1.88;;;;;;;11.53;100.00;101161.06;5208143;28;20056;-75
2023/12/23 01:20:15;;;;;;;14.10;2.70;;;;;;;11.52;100.00;101151.31;5205843;28;20028;-75
2023/12/23 01:22:45;;;;;;;14.00;2.15;;;;;;;11.56;100.00;101143.78;5207474;28;20033;-75
2023/12/23 01:25:16;;;;;;;11.90;2.40;;;;;;;11.49;100.00;101148.13;5206733;28;20029;-75
2023/12/23 01:27:47;;;;;;;9.43;2.45;;;;;;;11.50;100.00;101126.47;5206020;28;20582;-75
2023/12/23 01:30:17;;;;;;;8.98;1.90;;;;;;;11.40;100.00;101144.59;5209473;28;20017;-74
2023/12/23 01:32:47;;;;;;;15.68;2.72;;;;;;;11.34;100.00;101145.22;5208030;28;20025;-75
2023/12/23 01:35:18;;;;;;;9.13;2.17;;;;;;;11.29;100.00;101150.25;5208385;28;20020;-74
2023/12/23 01:37:48;;;;;;;10.55;2.10;;;;;;;11.37;100.00;101156.47;5205631;28;20025;-75
2023/12/23 01:40:19;;;;;;;12.50;2.20;;;;;;;11.34;100.00;101153.28;5207191;28;20025;-75
2023/12/23 01:42:50;;;;;;;8.00;1.90;;;;;;;11.32;100.00;101144.56;5208848;28;20029;-75
2023/12/23 01:45:20;;;;;;;13.20;1.92;;;;;;;11.32;100.00;101144.56;5206760;28;20655;-75
2023/12/23 01:47:53;;;;;;;7.72;2.60;;;;;;;11.35;100.00;101141.56;5207395;28;20083;-75
2023/12/23 01:50:25;;;;;;;7.25;1.73;;;;;;;11.28;100.00;101140.50;5208627;28;20036;-75
2023/12/23 01:52:57;;;;;;;13.30;2.60;;;;;;;11.35;100.00;101146.94;5206976;28;20033;-75
2023/12/23 01:55:28;;;;;;;13.77;1.95;;;;;;;11.32;100.00;101145.41;5206617;28;20025;-75
2023/12/23 01:57:59;;;;;;;11.82;2.28;;;;;;;11.27;100.00;101131.63;5203973;28;20033;-74
2023/12/23 02:00:30;;;;;;;12.02;2.10;;;;;;;11.24;100.00;101145.34;5207411;28;20028;-75
2023/12/23 02:03:01;;;;;;;12.02;1.77;;;;;;;11.22;100.00;101144.69;5210705;28;20044;-75
2023/12/23 02:05:31;;;;;;;13.88;2.20;;;;;;;11.29;100.00;101134.13;5206943;28;20032;-75
2023/12/23 02:08:02;;;;;;;11.02;1.50;;;;;;;11.17;100.00;101136.28;5208673;28;20024;-75
2023/12/23 02:10:33;;;;;;;10.52;1.73;;;;;;;11.30;100.00;101125.09;5206226;28;20420;-75
2023/12/23 02:13:19;;;;;;;12.05;2.65;;;;;;;11.26;100.00;101119.19;5208649;28;20029;-75
2023/12/23 02:15:52;;;;;;;9.35;2.28;;;;;;;11.19;100.00;101134.25;5201998;28;20136;-75
2023/12/23 02:18:22;;;;;;;9.60;2.03;;;;;;;11.27;100.00;101136.97;5207253;28;20025;-75
2023/12/23 02:20:53;;;;;;;9.00;2.28;;;;;;;11.20;100.00;101132.44;5209107;28;20650;-75
2023/12/23 02:23:23;;;;;;;8.73;1.70;;;;;;;11.24;100.00;101123.03;5204797;28;20033;-75
2023/12/23 02:25:59;;;;;;;10.60;2.15;;;;;;;11.26;100.00;101134.47;5208145;28;20018;-75
2023/12/23 02:28:32;;;;;;;19.52;2.33;;;;;;;11.19;100.00;101134.25;5200227;28;20059;-75
2023/12/23 02:31:03;;;;;;;12.63;2.58;;;;;;;11.14;100.00;101134.78;5209428;28;20033;-75
2023/12/23 02:33:34;;;;;;;7.53;1.77;;;;;;;11.10;100.00;101133.41;5207405;28;20103;-75
2023/12/23 02:36:05;;;;;;;9.65;1.50;;;;;;;11.23;100.00;101124.03;5207289;28;20048;-75
2023/12/23 02:38:35;;;;;;;11.38;2.42;;;;;;;11.19;100.00;101112.78;5201700;28;20124;-75
2023/12/23 02:41:06;;;;;;;10.02;1.85;;;;;;;11.09;100.00;101125.50;5209214;28;20394;-75
2023/12/23 02:43:36;;;;;;;12.68;2.00;;;;;;;11.13;100.00;101130.38;5209658;28;20049;-74
2023/12/23 02:46:07;;;;;;;8.63;1.67;;;;;;;11.07;100.00;101120.31;5213037;28;20021;-74
2023/12/23 02:48:38;;;;;;;9.38;1.92;;;;;;;11.11;100.00;101113.63;5211125;28;20059;-75
2023/12/23 02:51:10;;;;;;;12.82;2.35;;;;;;;11.07;100.00;101106.03;5210608;28;20025;-75
2023/12/23 02:53:40;;;;;;;8.77;1.70;;;;;;;11.10;100.00;101106.56;5211568;28;20438;-75
2023/12/23 02:56:11;;;;;;;7.57;1.52;;;;;;;11.10;100.00;101101.19;5210455;28;20029;-74
2023/12/23 02:58:41;;;;;;;10.57;1.60;;;;;;;11.07;100.00;101106.88;5208045;28;20036;-74
2023/12/23 03:01:14;;;;;;;12.68;2.03;;;;;;;11.09;100.00;101098.66;5210256;28;20033;-75
2023/12/23 03:03:45;;;;;;;9.00;2.05;;;;;;;11.10;100.00;101103.88;5211311;28;20530;-74
2023/12/23 03:06:15;;;;;;;9.73;2.15;;;;;;;11.10;100.00;101103.88;5212269;28;20112;-74
2023/12/23 03:08:46;;;;;;;9.32;1.60;;;;;;;11.17;100.00;101127.41;5208274;28;20030;-75
2023/12/23 03:11:17;;;;;;;10.05;1.88;;;;;;;11.04;100.00;101126.00;5208792;28;20495;-74
2023/12/23 03:13:48;;;;;;;11.30;2.03;;;;;;;11.08;100.00;101116.63;5211687;28;20032;-75
2023/12/23 03:16:33;;;;;;;10.55;2.08;;;;;;;11.13;100.00;101118.81;5207309;28;20112;-75
2023/12/23 03:19:04;;;;;;;12.60;1.92;;;;;;;11.16;100.00;101115.81;5212491;28;20064;-74
2023/12/23 03:21:41;;;;;;;9.07;1.45;;;;;;;11.11;100.00;101116.31;5203482;28;20067;-74
2023/12/23 03:24:15;;;;;;;5.65;1.83;;;;;;;11.10;100.00;101103.03;5202979;28;20037;-75
2023/12/23 03:26:47;;;;;;;10.57;1.95;;;;;;;11.13;100.00;101098.16;5207515;28;20421;-75
2023/12/23 03:29:18;;;;;;;10.80;1.85;;;;;;;11.17;100.00;101095.16;5212015;28;20029;-74
2023/12/23 03:31:49;;;;;;;6.00;1.73;;;;;;;11.17;100.00;101098.69;5205682;28;20444;-74
2023/12/23 03:34:19;;;;;;;10.52;2.08;;;;;;;11.08;100.00;101095.13;5209195;28;20021;-74
2023/12/23 03:36:50;;;;;;;7.55;1.67;;;;;;;11.05;100.00;101092.78;5208803;28;20025;-74
2023/12/23 03:39:20;;;;;;;10.00;1.52;;;;;;;11.18;100.00;101102.22;5205302;28;20441;-74
2023/12/23 03:41:51;;;;;;;15.07;1.90;;;;;;;11.25;100.00;101095.19;5206069;28;20400;-75
2023/12/23 03:44:21;;;;;;;9.43;2.10;;;;;;;11.13;100.00;101097.34;5206704;28;20041;-75
2023/12/23 03:46:52;;;;;;;7.45;2.25;;;;;;;11.14;100.00;101077.53;5203454;28;20036;-75
2023/12/23 03:49:22;;;;;;;9.00;1.92;;;;;;;11.27;100.00;101080.59;5207237;28;20630;-75
2023/12/23 03:51:53;;;;;;;11.00;1.85;;;;;;;11.24;100.00;101078.22;5210791;28;20025;-74
2023/12/23 03:54:23;;;;;;;11.32;2.28;;;;;;;11.19;100.00;101082.41;5206844;28;20473;-75
2023/12/23 03:56:54;;;;;;;15.85;2.55;;;;;;;11.27;100.00;101085.13;5205121;28;20036;-74
2023/12/23 03:59:24;;;;;;;10.52;2.50;;;;;;;11.13;100.00;101075.84;5205426;28;20484;-74
2023/12/23 04:01:55;;;;;;;9.82;2.58;;;;;;;11.29;100.00;101075.88;5208577;28;20060;-74
2023/12/23 04:04:25;;;;;;;11.68;2.45;;;;;;;11.21;100.00;101072.34;5211204;28;20021;-75
2023/12/23 04:06:56;;;;;;;8.63;2.05;;;;;;;11.26;100.00;101070.84;5208826;28;20038;-74
2023/12/23 04:09:26;;;;;;;8.93;2.17;;;;;;;11.15;100.00;101063.13;5209442;28;20027;-75
2023/12/23 04:11:57;;;;;;;9.65;2.00;;;;;;;11.17;100.00;101055.72;5210290;28;20033;-74
2023/12/23 04:14:28;;;;;;;5.88;1.77;;;;;;;11.24;100.00;101072.00;5207164;28;20480;-75
2023/12/23 04:16:58;;;;;;;10.50;1.65;;;;;;;11.27;100.00;101072.53;5208681;28;20034;-75
2023/12/23 04:19:29;;;;;;;13.32;2.38;;;;;;;11.19;100.00;101063.59;5209024;28;20450;-75
2023/12/23 04:21:59;;;;;;;8.95;2.00;;;;;;;11.11;100.00;101043.81;5212308;28;20026;-74
2023/12/23 04:24:30;;;;;;;8.73;1.70;;;;;;;11.19;100.00;101053.69;5208096;28;20052;-74
2023/12/23 04:27:00;;;;;;;13.60;1.85;;;;;;;11.24;100.00;101055.91;5211458;28;20033;-75
2023/12/23 04:29:32;;;;;;;12.32;1.85;;;;;;;11.21;100.00;101053.56;5218973;28;20021;-75
2023/12/23 04:32:04;;;;;;;8.48;1.90;;;;;;;11.26;100.00;101049.38;5220806;28;20036;-75
2023/12/23 04:34:36;;;;;;;7.32;1.80;;;;;;;11.20;100.00;101051.88;5213418;28;20036;-74
2023/12/23 04:37:07;;;;;;;8.00;1.70;;;;;;;11.25;100.00;101052.22;5213706;28;20029;-74
2023/12/23 04:39:37;;;;;;;11.32;1.80;;;;;;;11.26;100.00;101054.75;5216842;28;20094;-75
2023/12/23 04:42:08;;;;;;;7.25;1.58;;;;;;;11.15;100.00;101053.22;5217517;28;20112;-74
2023/12/23 04:44:38;;;;;;;9.95;1.73;;;;;;;11.17;100.00;101058.41;5211769;28;20391;-75
2023/12/23 04:47:09;;;;;;;8.70;2.35;;;;;;;11.14;100.00;101040.81;5214518;28;20032;-75
2023/12/23 04:49:39;;;;;;;9.20;1.67;;;;;;;11.27;100.00;101044.84;5213561;28;20037;-75
2023/12/23 04:52:10;;;;;;;13.00;1.60;;;;;;;11.21;100.00;101040.13;5209232;28;20488;-74
2023/12/23 04:54:40;;;;;;;9.55;1.58;;;;;;;11.28;100.00;101035.75;5210187;28;20388;-75
2023/12/23 04:57:11;;;;;;;9.23;1.60;;;;;;;11.19;100.00;101034.06;5208470;28;20022;-74
2023/12/23 04:59:41;;;;;;;11.93;1.90;;;;;;;11.13;100.00;101033.72;5220717;28;20025;-74
2023/12/23 05:02:12;;;;;;;7.05;1.70;;;;;;;11.24;100.00;101037.09;5213718;28;20031;-74
2023/12/23 05:04:46;;;;;;;13.43;1.75;;;;;;;11.19;100.00;101048.34;5212914;28;20032;-74
2023/12/23 05:07:16;;;;;;;8.57;1.55;;;;;;;11.12;100.00;101036.59;5210825;28;20058;-74
2023/12/23 05:09:47;;;;;;;11.45;2.78;;;;;;;11.03;100.00;101043.78;5216291;28;20472;-75
2023/12/23 05:12:17;;;;;;;8.32;2.17;;;;;;;11.02;100.00;101047.47;5208912;28;20037;-74
2023/12/23 05:14:49;;;;;;;7.68;1.65;;;;;;;10.93;100.00;101036.88;5208718;28;20036;-74
2023/12/23 05:17:19;;;;;;;11.20;2.45;;;;;;;10.88;100.00;101042.72;5208891;28;20427;-74
2023/12/23 05:19:50;;;;;;;12.55;1.92;;;;;;;10.87;100.00;101035.69;5208637;28;20020;-74
2023/12/23 05:22:20;;;;;;;11.70;2.53;;;;;;;10.95;100.00;101054.50;5210058;28;20021;-74
2023/12/23 05:24:51;;;;;;;14.10;1.98;;;;;;;10.90;100.00;101040.75;5212425;28;20384;-74
2023/12/23 05:27:22;;;;;;;9.88;1.92;;;;;;;11.03;100.00;101033.03;5210924;28;20048;-75
2023/12/23 05:29:55;;;;;;;11.40;2.10;;;;;;;11.05;100.00;101039.09;5209230;28;20044;-74
2023/12/23 05:32:26;;;;;;;14.23;2.58;;;;;;;11.03;100.00;101032.19;5212672;28;20033;-75
2023/12/23 05:34:57;;;;;;;17.52;2.70;;;;;;;11.03;100.00;101034.88;5210420;28;20511;-74
2023/12/23 05:37:27;;;;;;;15.55;2.13;;;;;;;10.89;100.00;101045.28;5232260;28;20025;-74
2023/12/23 05:39:58;;;;;;;7.15;1.85;;;;;;;11.00;100.00;101045.97;5214075;28;20037;-74
2023/12/23 05:42:28;;;;;;;8.98;2.25;;;;;;;11.08;100.00;101036.06;5209783;28;20025;-74
2023/12/23 05:44:59;;;;;;;10.05;2.38;;;;;;;11.01;100.00;101039.59;5209596;28;20389;-75
2023/12/23 05:47:29;;;;;;;9.25;1.95;;;;;;;10.98;100.00;101037.22;5211392;28;20029;-74
2023/12/23 05:50:00;;;;;;;9.82;1.90;;;;;;;10.98;100.00;101030.00;5212311;28;20037;-75
2023/12/23 05:52:30;;;;;;;12.38;3.10;;;;;;;10.98;100.00;101034.53;5204413;28;20059;-75
2023/12/23 05:55:01;;;;;;;16.70;2.80;;;;;;;11.00;100.00;101037.91;5214631;28;20078;-75
2023/12/23 05:57:35;;;;;;;9.98;2.15;;;;;;;10.97;100.00;101036.38;5196700;28;20036;-74
2023/12/23 06:00:11;;;;;;;8.55;1.80;;;;;;;10.96;100.00;101034.72;5207862;28;20029;-75
2023/12/23 06:02:41;;;;;;;8.85;2.20;;;;;;;11.02;100.00;101036.72;5201064;28;20017;-75
2023/12/23 06:05:12;;;;;;;13.13;2.45;;;;;;;11.03;100.00;101026.84;5200075;28;20048;-75
2023/12/23 06:07:42;;;;;;;10.15;1.92;;;;;;;11.01;100.00;101028.84;5202180;28;20645;-75
2023/12/23 06:10:13;;;;;;;15.35;2.70;;;;;;;10.98;100.00;101029.16;5204157;28;20037;-74
2023/12/23 06:12:44;;;;;;;8.80;1.88;;;;;;;11.09;100.00;101031.53;5212651;28;20400;-74
2023/12/23 06:15:14;;;;;;;10.25;1.88;;;;;;;11.06;100.00;101024.66;5202376;28;20076;-75
2023/12/23 06:17:48;;;;;;;16.27;2.38;;;;;;;11.13;100.00;101036.41;5209842;28;20026;-75
2023/12/23 06:20:18;;;;;;;14.25;2.15;;;;;;;11.07;100.00;101029.03;5206539;28;20024;-75
2023/12/23 06:22:49;;;;;;;14.70;2.00;;;;;;;11.12;100.00;101032.06;5211118;28;20028;-75
2023/12/23 06:25:20;;;;;;;18.55;2.40;;;;;;;11.12;100.00;101020.47;5207860;28;20029;-75
2023/12/23 06:27:50;;;;;;;14.30;2.08;;;;;;;11.23;100.00;101027.38;5212405;28;20078;-74
2023/12/23 06:30:21;;;;;;;11.80;2.28;;;;;;;11.16;100.00;101013.78;5209696;28;20480;-74
2023/12/23 06:32:51;;;;;;;9.00;2.30;;;;;;;11.27;100.00;101023.34;5215143;28;20026;-74
2023/12/23 06:35:22;;;;;;;10.48;2.60;;;;;;;11.22;100.00;101023.84;5212410;28;20522;-74
2023/12/23 06:37:52;;;;;;;21.80;2.50;;;;;;;11.22;100.00;101005.03;5208754;28;20025;-74
2023/12/23 06:40:23;;;;;;;17.55;3.28;;;;;;;11.25;100.00;101015.47;5214650;28;20021;-74
2023/12/23 06:42:54;;;;;;;10.63;2.20;;;;;;;11.26;100.00;101019.00;5210717;28;20040;-74
2023/12/23 06:45:24;;;;;;;11.50;2.50;;;;;;;11.22;100.00;101015.78;5207677;28;20634;-73
2023/12/23 06:47:55;;;;;;;15.52;3.25;;;;;;;11.27;100.00;101024.19;5207650;28;20176;-74
2023/12/23 06:50:26;;;;;;;12.15;2.53;;;;;;;11.25;100.00;101022.69;5211299;28;20018;-74
2023/12/23 06:52:56;;;;;;;17.90;2.53;;;;;;;11.40;100.00;101029.06;5212369;28;20369;-74
2023/12/23 06:55:27;;;;;;;20.52;2.63;;;;;;;11.34;100.00;101024.34;5201206;28;20021;-74
2023/12/23 06:57:57;;;;;;;12.70;2.75;;;;;;;11.27;100.00;101023.34;5206471;28;20246;-73
2023/12/23 07:00:28;;;;;;;12.65;3.22;;;;;;;11.37;100.00;101018.66;5211542;28;20098;-73
2023/12/23 07:02:58;;;;;;;19.05;3.22;;;;;;;11.49;100.00;101025.34;5216018;28;20029;-73
2023/12/23 07:05:29;;;;;;;15.20;2.95;;;;;;;11.56;100.00;101030.94;5213344;28;20029;-73
2023/12/23 07:07:59;;;;;;;14.55;3.53;;;;;;;11.51;100.00;101027.91;5218077;28;20427;-73
2023/12/23 07:10:30;;;;;;;11.05;2.42;;;;;;;11.50;100.00;101037.81;5217049;28;20021;-73
2023/12/23 07:13:00;;;;;;;19.00;3.42;;;;;;;11.53;100.00;101056.25;5213981;28;20658;-73
2023/12/23 07:15:31;;;;;;;16.02;1.95;;;;;;;11.51;100.00;101047.53;5206587;28;20087;-73
2023/12/23 07:18:01;;;;;;;13.80;2.97;;;;;;;11.59;100.00;101047.53;5211490;28;20033;-73
2023/12/23 07:20:32;;;;;;;14.40;2.60;;;;;;;11.60;100.00;101043.03;5209880;28;20493;-73
2023/12/23 07:23:02;;;;;;;15.40;2.58;;;;;;;11.49;100.00;101046.03;5214031;28;20029;-73
2023/12/23 07:25:33;;;;;;;15.45;1.90;;;;;;;11.46;100.00;101044.53;5211965;28;20021;-73
2023/12/23 07:28:04;;;;;;;14.50;2.75;;;;;;;11.50;100.00;101027.06;5215796;28;20096;-73
2023/12/23 07:30:38;;;;;;;15.82;2.67;;;;;;;11.50;100.00;101037.81;5212252;28;20036;-73
2023/12/23 07:33:08;;;;;;;16.17;3.40;;;;;;;11.51;100.00;101038.66;5218306;28;20033;-73
2023/12/23 07:35:39;;;;;;;12.25;2.53;;;;;;;11.45;100.00;101040.16;5215188;28;20032;-73
2023/12/23 07:38:09;;;;;;;9.93;2.30;;;;;;;11.60;100.00;101041.16;5210231;28;20025;-73
2023/12/23 07:40:40;;;;;;;12.43;2.83;;;;;;;11.57;100.00;101036.13;5218190;28;20086;-73
2023/12/23 07:43:11;;;;;;;12.50;2.15;;;;;;;11.41;100.00;101041.50;5208436;28;20033;-73
2023/12/23 07:45:42;;;;;;;21.38;7.13;;;;;;;11.44;100.00;101046.53;5213981;28;20071;-73
2023/12/23 07:48:12;;;;;;;14.27;2.80;;;;;;;11.47;100.00;101031.94;5214708;28;20618;-73
2023/12/23 07:50:43;;;;;;;15.02;2.63;;;;;;;11.53;100.00;101032.09;5210462;28;20108;-73
2023/12/23 07:53:13;;;;;;;22.00;4.53;;;;;;;11.49;100.00;101036.09;5218344;28;20028;-73
2023/12/23 07:55:44;;;;;;;13.52;3.80;;;;;;;11.46;100.00;101044.53;5209480;28;20045;-72
2023/12/23 07:58:14;;;;;;;14.25;2.72;;;;;;;11.51;100.00;101036.78;5207584;28;20431;-73
2023/12/23 08:00:46;;;;;;;11.70;2.40;;;;;;;11.45;100.00;101053.59;5216719;28;20029;-74
2023/12/23 08:03:16;;;;;;;11.63;3.00;;;;;;;11.52;100.00;101043.84;5214596;28;20445;-73
2023/12/23 08:05:47;;;;;;;17.15;3.03;;;;;;;11.54;100.00;101057.94;5210850;28;20017;-74
2023/12/23 08:08:18;;;;;;;12.80;2.58;;;;;;;11.47;100.00;101051.56;5213108;28;20626;-74
2023/12/23 08:10:50;;;;;;;9.68;2.03;;;;;;;11.47;100.00;101043.50;5212161;28;20033;-74
2023/12/23 08:13:20;;;;;;;10.43;2.10;;;;;;;11.52;100.00;101049.22;5210614;28;20462;-74
2023/12/23 08:15:51;;;;;;;14.93;2.92;;;;;;;11.46;100.00;101055.25;5212780;28;20021;-74
2023/12/23 08:18:21;;;;;;;8.40;2.63;;;;;;;11.54;100.00;101047.19;5210165;28;20105;-74
2023/12/23 08:20:52;;;;;;;12.65;1.88;;;;;;;11.47;100.00;101062.31;5214229;28;20032;-74
2023/12/23 08:23:22;;;;;;;13.25;3.40;;;;;;;11.50;100.00;101050.41;5210378;28;20477;-74
2023/12/23 08:25:53;;;;;;;13.35;5.00;;;;;;;11.60;100.00;101045.72;5212100;28;20025;-74
2023/12/23 08:28:25;;;;;;;9.60;2.60;;;;;;;11.51;100.00;101044.03;5211576;28;20021;-74
2023/12/23 08:30:55;;;;;;;11.35;2.65;;;;;;;11.46;100.00;101041.84;5209487;28;20424;-74
2023/12/23 08:33:26;;;;;;;16.23;2.40;;;;;;;11.49;100.00;101046.03;5207761;28;20111;-74
2023/12/23 08:35:56;;;;;;;15.80;3.20;;;;;;;11.48;100.00;101047.03;5210256;28;20037;-74
2023/12/23 08:38:28;;;;;;;16.38;6.95;;;;;;;11.57;100.00;101037.97;5211047;28;20026;-74
2023/12/23 08:40:58;;;;;;;17.05;5.80;;;;;;;11.61;100.00;101052.75;5208882;28;20523;-74
2023/12/23 08:43:28;;;;;;;14.13;5.80;;;;;;;11.60;100.00;101045.72;5215486;28;20048;-74
2023/12/23 08:45:59;;;;;;;11.88;2.30;;;;;;;11.51;100.00;101041.34;5212511;28;20408;-74
2023/12/23 08:48:30;;;;;;;15.77;2.45;;;;;;;11.55;100.00;101048.91;5211315;28;20104;-74
2023/12/23 08:51:00;;;;;;;9.57;3.13;;;;;;;11.67;100.00;101052.91;5215926;28;20037;-74
2023/12/23 08:53:31;;;;;;;12.20;2.72;;;;;;;11.58;100.00;101069.19;5211910;28;20075;-74
2023/12/23 08:56:02;;;;;;;8.88;1.88;;;;;;;11.72;100.00;101070.38;5212104;28;20045;-74
2023/12/23 08:58:32;;;;;;;13.93;3.83;;;;;;;11.76;100.00;101072.56;5207746;28;20506;-74
2023/12/23 09:01:03;;;;;;;8.48;2.30;;;;;;;11.70;100.00;101072.38;5215997;28;20037;-74
2023/12/23 09:03:33;;;;;;;15.02;2.65;;;;;;;11.72;100.00;101065.00;5212639;28;20447;-74
2023/12/23 09:06:06;;;;;;;7.50;1.67;;;;;;;11.67;100.00;101068.19;5215042;28;20024;-74
2023/12/23 09:08:38;;;;;;;10.93;2.85;;;;;;;11.74;100.00;101066.50;5224119;28;20080;-74
2023/12/23 09:11:09;;;;;;;10.02;2.05;;;;;;;11.75;100.00;101070.06;5211823;28;20067;-74
2023/12/23 09:13:39;;;;;;;14.13;2.28;;;;;;;11.87;100.00;101064.19;5213808;28;20437;-74
2023/12/23 09:16:10;;;;;;;13.60;3.78;;;;;;;11.99;100.00;101067.34;5208081;28;20036;-74
2023/12/23 09:18:40;;;;;;;24.60;9.63;;;;;;;11.91;100.00;101053.94;5211244;28;20037;-74
2023/12/23 09:21:11;;;;;;;14.82;3.33;;;;;;;12.03;100.00;101084.00;5212130;28;20033;-74
2023/12/23 09:23:41;;;;;;;14.27;1.85;;;;;;;12.01;100.00;101080.66;5210782;28;20551;-74
2023/12/23 09:26:13;;;;;;;7.68;2.08;;;;;;;12.07;100.00;101083.50;5211500;28;20035;-74
2023/12/23 09:28:43;;;;;;;13.07;3.15;;;;;;;12.05;100.00;101093.59;5208167;28;20086;-74
2023/12/23 09:31:14;;;;;;;6.82;2.70;;;;;;;12.04;100.00;101085.69;5211466;28;20033;-74
2023/12/23 09:33:44;;;;;;;12.77;2.40;;;;;;;12.03;100.00;101095.59;5214936;28;20031;-74
2023/12/23 09:36:15;;;;;;;11.77;2.05;;;;;;;12.12;100.00;101110.72;5210909;28;20028;-74
2023/12/23 09:38:45;;;;;;;8.77;2.50;;;;;;;12.00;100.00;101105.84;5210435;28;20507;-74
2023/12/23 09:41:16;;;;;;;17.08;6.68;;;;;;;11.93;100.00;101105.69;5212280;28;20041;-74
2023/12/23 09:43:49;;;;;;;21.30;6.30;;;;;;;11.98;100.00;101097.13;5210139;28;20021;-74
2023/12/23 09:46:20;;;;;;;12.07;2.38;;;;;;;11.92;100.00;101101.31;5209979;28;20044;-73
2023/12/23 09:48:51;;;;;;;12.23;2.80;;;;;;;12.07;100.00;101118.47;5212676;28;20028;-74
2023/12/23 09:51:25;;;;;;;10.80;2.72;;;;;;;12.04;100.00;101112.56;5211179;28;20477;-74
2023/12/23 09:53:58;;;;;;;9.90;2.78;;;;;;;12.18;100.00;101125.31;5209563;28;20025;-74
2023/12/23 09:56:30;;;;;;;10.07;2.50;;;;;;;12.13;100.00;101125.00;5207804;28;20157;-74
2023/12/23 09:59:00;;;;;;;10.95;2.92;;;;;;;12.13;100.00;101116.94;5208160;28;20037;-73
2023/12/23 10:01:31;;;;;;;6.50;1.63;;;;;;;12.12;100.00;101129.53;5210563;28;20021;-74
2023/12/23 10:04:01;;;;;;;13.55;2.30;;;;;;;12.10;100.00;101126.19;5212084;28;20031;-74
2023/12/23 10:06:32;;;;;;;10.80;3.00;;;;;;;12.03;100.00;101125.16;5209264;28;20022;-74
2023/12/23 10:09:03;;;;;;;18.02;5.15;;;;;;;12.16;100.00;101125.50;5209159;28;20025;-74
2023/12/23 10:11:33;;;;;;;5.93;2.63;;;;;;;12.22;100.00;101136.59;5203922;28;20025;-74
2023/12/23 10:14:05;;;;;;;14.57;2.85;;;;;;;12.36;100.00;101123.28;5208670;28;20032;-74
2023/12/23 10:16:35;;;;;;;11.93;4.40;;;;;;;12.42;100.00;101119.91;5209245;28;20442;-74
2023/12/23 10:19:08;;;;;;;11.20;2.90;;;;;;;12.55;100.00;101115.84;5210699;28;20029;-74
2023/12/23 10:21:41;;;;;;;12.98;3.40;;;;;;;12.60;100.00;101113.47;5207159;28;20037;-74
2023/12/23 10:24:12;;;;;;;11.00;3.35;;;;;;;12.72;100.00;101122.03;5193239;28;20262;-74
2023/12/23 10:26:42;;;;;;;9.18;2.35;;;;;;;12.75;100.00;101118.97;5209044;28;20045;-74
2023/12/23 10:29:16;;;;;;;6.82;1.77;;;;;;;12.82;100.00;101101.97;5213670;28;20075;-74
2023/12/23 10:31:50;;;;;;;9.20;1.98;;;;;;;12.95;100.00;101118.41;5209077;28;20032;-74
2023/12/23 10:34:23;;;;;;;13.03;2.07;;;;;;;13.03;100.00;101122.91;5210667;28;22606;-74
2023/12/23 10:36:56;;;;;;;7.10;1.67;;;;;;;13.01;100.00;101113.34;5206237;28;20021;-74
2023/12/23 10:39:30;;;;;;;8.30;2.10;;;;;;;13.02;100.00;101123.91;5207981;28;20112;-74
2023/12/23 10:42:03;;;;;;;6.30;1.38;;;;;;;13.01;100.00;101116.84;5209002;28;20044;-74
2023/12/23 10:44:35;;;;;;;10.77;1.77;;;;;;;13.06;100.00;101119.88;5207781;28;20029;-74
2023/12/23 10:47:07;;;;;;;7.15;1.70;;;;;;;12.99;100.00;101118.03;5209732;28;20036;-74
2023/12/23 10:49:38;;;;;;;8.23;1.95;;;;;;;12.96;100.00;101117.38;5202313;28;20488;-74
2023/12/23 10:52:10;;;;;;;19.55;9.55;;;;;;;12.90;100.00;101125.31;5213051;28;20048;-74
2023/12/23 10:54:41;;;;;;;8.85;3.70;;;;;;;12.94;100.00;101113.16;5207586;28;20041;-74
2023/12/23 10:57:13;;;;;;;10.57;3.90;;;;;;;12.81;100.00;101088.69;5203039;28;20041;-74
2023/12/23 10:59:43;;;;;;;14.32;3.22;;;;;;;12.80;100.00;101104.00;5209794;28;20033;-74
2023/12/23 11:02:16;;;;;;;13.43;2.55;;;;;;;12.77;100.00;101112.41;5210308;28;20025;-74
2023/12/23 11:04:50;;;;;;;10.27;2.40;;;;;;;12.81;100.00;101115.59;5214335;28;20021;-74
2023/12/23 11:07:30;;;;;;;13.15;2.72;;;;;;;12.69;100.00;101120.50;5211247;28;20028;-74
2023/12/23 11:10:02;;;;;;;10.40;2.75;;;;;;;12.75;100.00;101136.00;5210428;28;20111;-74
2023/12/23 11:12:33;;;;;;;15.95;3.28;;;;;;;12.61;100.00;101117.84;5210439;28;20068;-74
2023/12/23 11:15:05;;;;;;;6.47;1.75;;;;;;;12.65;100.00;101136.19;5212068;28;20051;-74
2023/12/23 11:17:42;;;;;;;19.67;3.97;;;;;;;12.57;100.00;101141.56;5213298;28;20029;-74
2023/12/23 11:20:41;;;;;;;9.18;3.25;;;;;;;12.51;100.00;101144.13;5208354;28;20039;-74
2023/12/23 11:23:33;;;;;;;11.60;2.75;;;;;;;12.54;100.00;101135.69;5214366;28;20061;-74
2023/12/23 11:26:04;;;;;;;13.93;2.45;;;;;;;12.60;100.00;101133.16;5214699;28;20029;-74
2023/12/23 11:28:40;;;;;;;9.07;1.80;;;;;;;12.55;100.00;101116.69;5211752;28;20051;-74
2023/12/23 11:31:10;;;;;;;6.40;2.00;;;;;;;12.58;100.00;101124.41;5214796;28;20496;-75